createdAt,value
2018-11-22T12:17:23.734Z,21.11
2018-11-22T12:22:27.055Z,21.13
2018-11-22T12:27:30.410Z,21.13
2018-11-22T12:32:35.055Z,21.11
2018-11-22T12:37:43.385Z,21.15
2018-11-22T12:42:43.435Z,21.12
2018-11-22T12:47:46.759Z,21.11
2018-11-22T12:52:50.036Z,21.12
2018-11-22T12:57:53.354Z,21.14
2018-11-22T13:02:56.638Z,21.13
2018-11-22T13:07:59.955Z,21.16
2018-11-22T13:13:03.239Z,21.17
2018-11-22T13:18:06.546Z,21.15
2018-11-22T13:23:09.855Z,21.18
2018-11-22T13:28:13.143Z,21.19
2018-11-22T13:33:16.428Z,21.24
2018-11-22T13:38:19.707Z,21.23
2018-11-22T13:43:22.991Z,21.22
2018-11-22T13:48:26.271Z,21.22
2018-11-22T13:53:29.670Z,21.26
2018-11-22T13:58:32.955Z,21.25
2018-11-22T14:03:36.242Z,21.25
2018-11-22T14:08:39.527Z,21.25
2018-11-22T14:13:42.803Z,21.26
2018-11-22T14:18:46.082Z,21.21
2018-11-22T14:23:49.370Z,21.19
2018-11-22T14:28:52.655Z,21.18
2018-11-22T14:33:55.931Z,21.17
2018-11-22T14:39:00.119Z,21.17
2018-11-22T14:44:03.435Z,21.17
2018-11-22T14:49:07.072Z,21.15
2018-11-22T14:54:10.355Z,21.16
2018-11-22T14:59:13.715Z,21.17
2018-11-22T15:04:16.987Z,21.17
2018-11-22T15:09:20.267Z,21.19
2018-11-22T15:14:23.587Z,21.17
2018-11-22T15:19:26.878Z,21.22
2018-11-22T15:24:30.231Z,21.27
2018-11-22T15:29:33.543Z,21.26
2018-11-22T15:34:36.831Z,21.28
2018-11-22T15:39:40.113Z,21.31
2018-11-22T15:44:43.437Z,21.37
2018-11-22T15:49:46.742Z,21.41
2018-11-22T15:54:50.024Z,21.41
2018-11-22T15:59:53.324Z,21.33
2018-11-22T16:04:56.618Z,21.28
2018-11-22T16:09:59.920Z,21.32
2018-11-22T16:15:03.303Z,21.33
2018-11-22T16:20:07.719Z,21.35
2018-11-22T16:25:12.244Z,21.34
2018-11-22T16:30:17.101Z,21.33
2018-11-22T16:35:21.231Z,21.45
2018-11-22T16:45:30.219Z,21.48
2018-11-22T16:50:34.548Z,21.43
2018-11-22T16:55:37.848Z,21.34
2018-11-22T17:00:41.440Z,21.42
2018-11-22T17:05:45.065Z,21.43
2018-11-22T17:10:48.365Z,21.42
2018-11-22T17:15:51.660Z,21.42
2018-11-22T17:20:55.048Z,21.39
2018-11-22T17:25:58.327Z,21.41
2018-11-22T17:31:01.616Z,21.45
2018-11-22T17:36:05.296Z,21.51
2018-11-22T17:41:08.577Z,21.53
2018-11-22T17:46:12.203Z,21.74
2018-11-22T17:51:15.492Z,21.74
2018-11-22T17:56:18.807Z,21.90
2018-11-22T18:01:22.091Z,21.97
2018-11-22T18:06:25.375Z,22.01
2018-11-22T18:11:28.679Z,22.04
2018-11-22T18:16:31.963Z,22.10
2018-11-22T18:21:35.281Z,22.12
2018-11-22T18:26:38.567Z,22.09
2018-11-22T18:31:41.851Z,22.13
2018-11-22T18:36:45.228Z,22.23
2018-11-22T18:41:48.692Z,22.26
2018-11-22T18:46:52.357Z,22.22
2018-11-22T18:51:55.638Z,22.10
2018-11-22T18:56:58.923Z,22.09
2018-11-22T19:02:02.272Z,22.06
2018-11-22T19:07:06.368Z,22.08
2018-11-22T19:12:09.656Z,22.11
2018-11-22T19:17:13.016Z,22.06
2018-11-22T19:22:16.345Z,22.01
2018-11-22T19:27:19.651Z,22.01
2018-11-22T19:32:22.940Z,21.97
2018-11-22T19:37:26.496Z,21.91
2018-11-22T19:42:29.775Z,21.92
2018-11-22T19:47:33.115Z,21.82
2018-11-22T19:52:36.963Z,21.86
2018-11-22T19:57:40.419Z,21.80
2018-11-22T20:02:44.444Z,21.82
2018-11-22T20:07:49.340Z,21.78
2018-11-22T20:12:52.696Z,21.75
2018-11-22T20:17:56.427Z,21.78
2018-11-22T20:22:59.779Z,21.73
2018-11-22T20:28:03.424Z,21.63
2018-11-22T20:33:06.846Z,21.61
2018-11-22T20:38:10.184Z,21.60
2018-11-22T20:43:13.495Z,21.64
2018-11-22T20:48:16.827Z,21.57
2018-11-22T20:53:20.124Z,21.52
2018-11-22T20:58:23.457Z,21.46
2018-11-22T21:03:26.805Z,21.42
2018-11-22T21:08:30.229Z,21.41
2018-11-22T21:13:33.564Z,21.39
2018-11-22T21:18:36.904Z,21.46
2018-11-22T21:23:40.269Z,21.43
2018-11-22T21:28:43.680Z,21.44
2018-11-22T21:33:47.032Z,21.39
2018-11-22T21:38:50.346Z,21.42
2018-11-22T21:43:53.686Z,21.42
2018-11-22T21:48:57.188Z,21.38
2018-11-22T21:54:01.020Z,21.34
2018-11-22T21:59:04.762Z,21.34
2018-11-22T22:04:08.144Z,21.31
2018-11-22T22:09:11.528Z,21.32
2018-11-22T22:14:14.883Z,21.32
2018-11-22T22:19:18.235Z,21.32
2018-11-22T22:24:21.668Z,21.32
2018-11-22T22:29:24.971Z,21.32
2018-11-22T22:34:28.295Z,21.32
2018-11-22T22:39:31.598Z,21.30
2018-11-22T22:44:35.094Z,21.26
2018-11-22T22:49:38.392Z,21.25
2018-11-22T22:54:41.735Z,21.27
2018-11-22T22:59:45.043Z,21.27
2018-11-22T23:04:48.384Z,21.24
2018-11-22T23:09:51.724Z,21.27
2018-11-22T23:14:55.041Z,21.23
2018-11-22T23:19:58.357Z,21.24
2018-11-22T23:25:01.680Z,21.23
2018-11-22T23:30:09.585Z,21.25
2018-11-22T23:35:12.899Z,21.22
2018-11-22T23:40:17.387Z,21.24
2018-11-22T23:45:21.912Z,21.20
2018-11-22T23:50:27.469Z,21.24
2018-11-22T23:55:30.776Z,21.23
